Time;durP1;ratioP1;P1;durP2;ratioP2;P2;SDS_P1;SDS_P2;PMS_P1;PMS_P2;Temp;Humidity;BMP_temperature;BMP_pressure;BME280_temperature;BME280_humidity;BME280_pressure;Samples;Min_cycle;Max_cycle;Signal;HPM_P1;HPM_P2
2023/03/09 00:01:53;;;;;;;;;;;;;;;5.53;85.08;96142.23;110164;1243;69197;-67
2023/03/09 00:04:23;;;;;;;;;;;;;;;5.53;85.05;96140.02;110170;1245;69117;-67
2023/03/09 00:06:53;;;;;;;;;;;;;;;5.53;84.81;96139.26;110149;1244;59734;-67
2023/03/09 00:09:23;;;;;;;;;;;;;;;5.54;84.20;96132.83;110236;1244;59727;-67
2023/03/09 00:11:52;;;;;;;;;;;;;;;5.54;83.50;96125.71;110131;1244;72004;-68
2023/03/09 00:14:22;;;;;;;;;;;;;;;5.55;83.35;96123.08;110121;1244;69254;-66
2023/03/09 00:16:51;;;;;;;;;;;;;;;5.56;84.19;96119.21;110228;1244;69077;-67
2023/03/09 00:19:26;;;;;;;;;;;;;;;5.55;86.26;96121.91;110160;1241;59738;-66
2023/03/09 00:21:57;;;;;;;;;;;;;;;5.54;85.92;96119.73;110153;1244;60115;-66
2023/03/09 00:24:27;;;;;;;;;;;;;;;5.52;84.81;96117.04;110204;1241;71391;-66
2023/03/09 00:26:59;;;;;;;;;;;;;;;5.52;85.03;96112.20;110197;1243;69217;-67
2023/03/09 00:29:29;;;;;;;;;;;;;;;5.52;85.37;96110.68;110160;1245;69872;-66
2023/03/09 00:31:58;;;;;;;;;;;;;;;5.52;85.73;96110.16;110325;1241;59754;-67
2023/03/09 00:34:28;;;;;;;;;;;;;;;5.51;85.74;96113.15;110244;1245;59743;-67
2023/03/09 00:36:58;;;;;;;;;;;;;;;5.51;85.15;96109.55;110049;1241;71294;-67
2023/03/09 00:39:27;;;;;;;;;;;;;;;5.52;84.30;96109.50;110187;1244;68492;-67
2023/03/09 00:41:56;;;;;;;;;;;;;;;5.52;83.89;96103.95;110165;1243;69847;-67
2023/03/09 00:44:27;;;;;;;;;;;;;;;5.52;84.35;96097.06;110146;1241;59681;-67
2023/03/09 00:46:57;;;;;;;;;;;;;;;5.52;84.77;96091.33;110165;1241;59747;-67
2023/03/09 00:49:26;;;;;;;;;;;;;;;5.51;84.98;96091.08;110181;1241;71267;-67
2023/03/09 00:51:59;;;;;;;;;;;;;;;5.50;85.77;96091.98;110210;1244;68508;-67
2023/03/09 00:54:28;;;;;;;;;;;;;;;5.49;85.69;96092.09;110140;1241;69758;-67
2023/03/09 00:56:57;;;;;;;;;;;;;;;5.46;85.96;96089.34;110195;1242;59734;-67
2023/03/09 00:59:26;;;;;;;;;;;;;;;5.44;85.84;96089.12;110102;1243;59688;-66
2023/03/09 01:01:55;;;;;;;;;;;;;;;5.41;86.61;96086.09;110195;1243;71308;-67
2023/03/09 01:04:26;;;;;;;;;;;;;;;5.40;85.68;96084.27;110244;1243;69798;-67
2023/03/09 01:06:55;;;;;;;;;;;;;;;5.42;85.30;96083.08;110179;1245;68313;-67
2023/03/09 01:09:26;;;;;;;;;;;;;;;5.45;84.79;96082.34;110157;1245;59727;-67
2023/03/09 01:11:56;;;;;;;;;;;;;;;5.48;83.99;96085.25;110258;1245;59764;-67
2023/03/09 01:14:25;;;;;;;;;;;;;;;5.51;83.89;96087.26;109610;1243;813906;-67
2023/03/09 01:16:55;;;;;;;;;;;;;;;5.55;84.02;96084.55;110214;1244;69377;-67
2023/03/09 01:19:24;;;;;;;;;;;;;;;5.57;83.35;96087.12;110152;1243;69215;-67
2023/03/09 01:21:54;;;;;;;;;;;;;;;5.61;83.54;96087.68;110177;1241;59691;-67
2023/03/09 01:24:25;;;;;;;;;;;;;;;5.64;83.29;96086.66;110143;1244;59773;-67
2023/03/09 01:26:56;;;;;;;;;;;;;;;5.66;82.51;96079.45;110148;1241;70433;-68
2023/03/09 01:29:27;;;;;;;;;;;;;;;5.66;83.23;96076.28;110183;1243;69126;-66
2023/03/09 01:31:57;;;;;;;;;;;;;;;5.67;83.22;96068.46;110148;1241;67677;-66
2023/03/09 01:34:27;;;;;;;;;;;;;;;5.66;82.99;96071.63;110186;1244;59747;-66
2023/03/09 01:36:58;;;;;;;;;;;;;;;5.67;82.39;96076.77;110128;1245;59728;-66
2023/03/09 01:39:28;;;;;;;;;;;;;;;5.68;81.97;96069.98;110230;1244;71385;-66
2023/03/09 01:41:59;;;;;;;;;;;;;;;5.72;80.32;96066.89;110149;1241;69628;-67
2023/03/09 01:44:29;;;;;;;;;;;;;;;5.77;80.24;96062.17;110143;1244;69239;-66
2023/03/09 01:47:00;;;;;;;;;;;;;;;5.81;80.28;96063.07;110124;1244;59735;-66
2023/03/09 01:49:36;;;;;;;;;;;;;;;5.84;79.58;96061.65;110207;1241;59647;-67
2023/03/09 01:52:18;;;;;;;;;;;;;;;5.87;79.16;96064.35;110172;1241;71200;-66
2023/03/09 01:54:50;;;;;;;;;;;;;;;5.92;78.99;96064.52;110180;1241;68319;-66
2023/03/09 01:57:26;;;;;;;;;;;;;;;5.95;78.54;96065.33;110144;1241;68499;-66
2023/03/09 02:00:00;;;;;;;;;;;;;;;5.99;78.15;96061.20;110172;1245;59725;-66
2023/03/09 02:02:32;;;;;;;;;;;;;;;6.04;77.63;96056.33;110161;1242;59656;-66
2023/03/09 02:05:06;;;;;;;;;;;;;;;6.09;76.56;96050.93;110161;1241;71961;-66
2023/03/09 02:07:39;;;;;;;;;;;;;;;6.21;75.19;96047.98;110104;1241;68342;-66
2023/03/09 02:10:15;;;;;;;;;;;;;;;6.33;74.75;96047.59;110163;1243;69266;-67
2023/03/09 02:12:52;;;;;;;;;;;;;;;6.44;73.72;96042.34;110161;1245;59713;-67
2023/03/09 02:15:24;;;;;;;;;;;;;;;6.53;73.55;96044.10;110148;1242;59653;-67
2023/03/09 02:17:55;;;;;;;;;;;;;;;6.60;74.08;96041.83;110059;1244;71451;-66
2023/03/09 02:20:33;;;;;;;;;;;;;;;6.66;73.45;96040.83;110051;1244;69265;-67
2023/03/09 02:23:07;;;;;;;;;;;;;;;6.69;73.06;96036.96;110079;1245;69889;-67
2023/03/09 02:25:41;;;;;;;;;;;;;;;6.70;72.78;96036.05;110123;1241;60076;-67
2023/03/09 02:28:11;;;;;;;;;;;;;;;6.72;72.46;96039.20;110159;1245;59773;-67
2023/03/09 02:30:44;;;;;;;;;;;;;;;6.73;73.30;96036.00;110095;1245;70958;-67
2023/03/09 02:33:30;;;;;;;;;;;;;;;6.73;73.58;96029.58;110177;1244;69234;-67
2023/03/09 02:36:01;;;;;;;;;;;;;;;6.70;73.13;96033.77;110121;1244;68553;-67
2023/03/09 02:38:35;;;;;;;;;;;;;;;6.68;73.23;96034.50;110122;1241;59738;-67
2023/03/09 02:41:07;;;;;;;;;;;;;;;6.63;73.27;96038.48;110153;1244;59792;-67
2023/03/09 02:43:46;;;;;;;;;;;;;;;6.59;73.17;96039.45;110104;1241;70470;-67
2023/03/09 02:46:17;;;;;;;;;;;;;;;6.57;73.39;96037.41;110148;1245;69289;-67
2023/03/09 02:48:46;;;;;;;;;;;;;;;6.63;71.85;96043.67;110143;1244;69277;-67
2023/03/09 02:51:16;;;;;;;;;;;;;;;6.77;71.24;96046.02;110175;1241;59678;-67
2023/03/09 02:53:46;;;;;;;;;;;;;;;6.84;71.49;96039.96;110173;1241;59738;-67
2023/03/09 02:56:17;;;;;;;;;;;;;;;6.89;71.81;96035.50;110136;1244;71269;-67
2023/03/09 02:58:48;;;;;;;;;;;;;;;6.95;71.09;96038.16;110111;1241;69652;-67
2023/03/09 03:01:18;;;;;;;;;;;;;;;7.01;70.34;96041.48;110101;1245;69864;-67
2023/03/09 03:03:48;;;;;;;;;;;;;;;7.09;69.83;96027.48;110115;1241;59810;-67
2023/03/09 03:06:17;;;;;;;;;;;;;;;7.18;69.73;96026.44;110199;1241;59637;-67
2023/03/09 03:08:47;;;;;;;;;;;;;;;7.26;68.86;96026.02;110164;1245;71246;-67
2023/03/09 03:11:19;;;;;;;;;;;;;;;7.33;68.74;96029.56;110155;1245;68363;-67
2023/03/09 03:13:50;;;;;;;;;;;;;;;7.36;68.83;96034.69;110150;1244;69883;-67
2023/03/09 03:16:20;;;;;;;;;;;;;;;7.40;68.29;96028.14;110113;1245;59682;-67
2023/03/09 03:18:51;;;;;;;;;;;;;;;7.41;68.17;96031.84;110177;1244;59841;-67
2023/03/09 03:21:21;;;;;;;;;;;;;;;7.38;68.17;96036.61;110139;1244;71243;-67
2023/03/09 03:23:51;;;;;;;;;;;;;;;7.36;68.74;96035.37;110161;1244;69211;-67
2023/03/09 03:26:22;;;;;;;;;;;;;;;7.38;68.12;96038.63;110133;1245;68551;-67
2023/03/09 03:28:54;;;;;;;;;;;;;;;7.36;68.85;96034.89;110232;1242;60068;-67
2023/03/09 03:31:26;;;;;;;;;;;;;;;7.37;68.01;96035.13;110115;1244;59702;-65
2023/03/09 03:33:57;;;;;;;;;;;;;;;7.42;67.72;96041.54;110154;1244;71412;-66
2023/03/09 03:36:32;;;;;;;;;;;;;;;7.51;67.08;96042.30;110298;1245;69660;-67
2023/03/09 03:39:04;;;;;;;;;;;;;;;7.53;67.27;96039.33;110100;1245;69135;-67
2023/03/09 03:41:34;;;;;;;;;;;;;;;7.64;66.59;96043.77;110178;1245;59740;-67
2023/03/09 03:44:07;;;;;;;;;;;;;;;7.70;66.30;96044.05;110200;1244;59653;-67
2023/03/09 03:46:39;;;;;;;;;;;;;;;7.70;65.89;96042.81;110098;1241;71396;-66
2023/03/09 03:49:09;;;;;;;;;;;;;;;7.71;65.88;96048.45;110182;1244;69301;-67
2023/03/09 03:51:39;;;;;;;;;;;;;;;7.72;66.30;96044.06;110277;1242;68541;-67
2023/03/09 03:54:09;;;;;;;;;;;;;;;7.75;66.42;96043.79;110081;1241;59630;-66
2023/03/09 03:56:39;;;;;;;;;;;;;;;7.74;66.08;96045.59;110070;1244;59653;-67
2023/03/09 03:59:12;;;;;;;;;;;;;;;7.71;66.26;96043.63;110189;1241;72042;-67
2023/03/09 04:01:41;;;;;;;;;;;;;;;7.66;66.47;96042.27;110142;1244;69106;-67
2023/03/09 04:04:12;;;;;;;;;;;;;;;7.60;66.46;96042.91;110181;1244;68814;-67
2023/03/09 04:06:47;;;;;;;;;;;;;;;7.52;66.81;96045.34;110193;1241;59640;-67
2023/03/09 04:09:20;;;;;;;;;;;;;;;7.45;66.93;96043.50;110399;1244;59628;-67
2023/03/09 04:11:50;;;;;;;;;;;;;;;7.41;66.95;96041.02;110152;1241;70412;-68
2023/03/09 04:14:21;;;;;;;;;;;;;;;7.38;67.37;96043.17;110187;1242;69328;-66
2023/03/09 04:16:53;;;;;;;;;;;;;;;7.35;67.50;96044.66;110137;1241;68515;-66
2023/03/09 04:19:28;;;;;;;;;;;;;;;7.28;67.66;96043.31;110108;1245;59689;-67
2023/03/09 04:21:58;;;;;;;;;;;;;;;7.20;68.01;96040.52;110105;1244;59709;-67
2023/03/09 04:24:28;;;;;;;;;;;;;;;7.17;68.03;96039.20;110197;1243;71852;-66
2023/03/09 04:26:59;;;;;;;;;;;;;;;7.18;68.19;96036.56;110164;1245;69283;-67
2023/03/09 04:29:47;;;;;;;;;;;;;;;7.19;68.30;96033.50;110156;1248;69908;-66
2023/03/09 04:32:18;;;;;;;;;;;;;;;7.19;68.37;96033.20;110167;1241;59745;-67
2023/03/09 04:34:50;;;;;;;;;;;;;;;7.15;68.71;96032.76;110100;1244;59743;-66
2023/03/09 04:37:20;;;;;;;;;;;;;;;7.10;68.86;96031.24;110096;1244;71355;-66
2023/03/09 04:39:52;;;;;;;;;;;;;;;7.04;68.79;96032.56;110226;1241;69170;-66
2023/03/09 04:42:21;;;;;;;;;;;;;;;7.01;68.90;96029.42;110198;1241;68705;-66
2023/03/09 04:44:50;;;;;;;;;;;;;;;6.99;68.92;96026.11;110163;1244;59683;-67
2023/03/09 04:47:20;;;;;;;;;;;;;;;6.97;69.13;96021.21;110132;1243;59715;-68
2023/03/09 04:49:50;;;;;;;;;;;;;;;6.96;69.20;96017.27;110148;1243;70774;-67
2023/03/09 04:52:19;;;;;;;;;;;;;;;7.00;68.96;96015.98;110224;1244;68736;-67
2023/03/09 04:54:49;;;;;;;;;;;;;;;7.02;68.92;96012.66;110168;1241;69264;-67
2023/03/09 04:57:18;;;;;;;;;;;;;;;7.04;68.88;96009.23;110169;1244;59750;-67
2023/03/09 04:59:48;;;;;;;;;;;;;;;7.05;68.45;96007.42;110317;1245;59750;-68
2023/03/09 05:02:17;;;;;;;;;;;;;;;7.07;68.84;96011.77;110305;1241;71405;-68
2023/03/09 05:04:48;;;;;;;;;;;;;;;7.03;69.33;96016.23;110141;1241;69689;-67
2023/03/09 05:07:18;;;;;;;;;;;;;;;6.96;69.39;96012.00;110163;1245;68438;-68
2023/03/09 05:09:47;;;;;;;;;;;;;;;6.92;69.82;96008.34;110150;1241;59667;-67
2023/03/09 05:12:16;;;;;;;;;;;;;;;6.88;69.69;96006.89;110163;1245;59679;-67
2023/03/09 05:14:45;;;;;;;;;;;;;;;7.05;68.65;96004.12;110153;1241;70638;-67
2023/03/09 05:17:17;;;;;;;;;;;;;;;7.27;68.02;96010.64;110138;1245;69902;-67
2023/03/09 05:19:45;;;;;;;;;;;;;;;7.38;67.57;96011.33;110161;1245;68503;-67
2023/03/09 05:22:16;;;;;;;;;;;;;;;7.48;66.96;96009.45;110195;1241;59681;-66
2023/03/09 05:24:45;;;;;;;;;;;;;;;7.49;67.30;96008.16;110198;1245;59676;-66
2023/03/09 05:27:14;;;;;;;;;;;;;;;7.51;67.53;96009.70;110127;1241;71949;-66
2023/03/09 05:29:44;;;;;;;;;;;;;;;7.62;67.14;96008.09;110247;1243;68238;-66
2023/03/09 05:32:14;;;;;;;;;;;;;;;7.74;67.37;96006.96;110118;1245;69327;-66
2023/03/09 05:34:45;;;;;;;;;;;;;;;7.90;67.08;96004.94;110150;1243;59707;-67
2023/03/09 05:37:14;;;;;;;;;;;;;;;8.12;66.97;96003.40;110150;1244;59744;-68
2023/03/09 05:39:43;;;;;;;;;;;;;;;8.36;67.54;96002.57;110158;1241;71971;-67
2023/03/09 05:42:12;;;;;;;;;;;;;;;8.62;67.69;96004.51;110164;1244;70046;-68
2023/03/09 05:44:41;;;;;;;;;;;;;;;8.87;67.83;96004.55;110151;1245;69290;-68
2023/03/09 05:47:10;;;;;;;;;;;;;;;9.19;68.88;96001.92;110125;1241;60204;-68
2023/03/09 05:49:39;;;;;;;;;;;;;;;9.54;65.97;96004.64;110196;1244;59682;-68
2023/03/09 05:52:08;;;;;;;;;;;;;;;9.79;64.46;96000.74;110142;1241;71315;-67
2023/03/09 05:54:38;;;;;;;;;;;;;;;10.06;64.26;95993.70;110113;1241;69809;-67
2023/03/09 05:57:12;;;;;;;;;;;;;;;10.31;61.83;95997.34;110127;1245;69197;-67
2023/03/09 05:59:42;;;;;;;;;;;;;;;10.55;59.21;95995.22;110158;1241;59679;-67
2023/03/09 06:02:11;;;;;;;;;;;;;;;10.54;57.75;95996.55;110100;1244;59679;-67
2023/03/09 06:04:42;;;;;;;;;;;;;;;10.63;57.64;95997.41;110145;1245;70637;-67
2023/03/09 06:07:11;;;;;;;;;;;;;;;10.79;57.03;95999.27;110180;1245;69266;-67
2023/03/09 06:09:44;;;;;;;;;;;;;;;10.88;56.57;96000.32;110173;1241;69327;-66
2023/03/09 06:12:17;;;;;;;;;;;;;;;10.93;57.37;96009.56;110144;1241;59741;-66
2023/03/09 06:14:51;;;;;;;;;;;;;;;11.07;57.42;96013.30;110215;1242;59696;-66
2023/03/09 06:17:21;;;;;;;;;;;;;;;11.16;56.84;96011.48;110167;1245;71554;-67
2023/03/09 06:19:50;;;;;;;;;;;;;;;11.32;56.17;96009.80;110206;1245;68739;-67
2023/03/09 06:22:18;;;;;;;;;;;;;;;11.44;56.37;96016.30;110150;1241;69264;-68
2023/03/09 06:24:48;;;;;;;;;;;;;;;11.68;55.74;96010.89;110144;1245;59689;-65
2023/03/09 06:27:17;;;;;;;;;;;;;;;11.74;54.87;96011.25;110116;1241;59786;-66
2023/03/09 06:29:47;;;;;;;;;;;;;;;12.03;53.75;96008.64;110218;1243;70621;-67
2023/03/09 06:32:17;;;;;;;;;;;;;;;12.27;52.37;96010.79;110112;1245;68589;-66
2023/03/09 06:34:46;;;;;;;;;;;;;;;12.28;51.97;96008.11;110160;1251;69172;-65
2023/03/09 06:37:16;;;;;;;;;;;;;;;12.35;51.84;96003.39;110111;1241;59720;-68
2023/03/09 06:39:45;;;;;;;;;;;;;;;12.34;51.66;95998.35;110146;1244;60085;-67
2023/03/09 06:42:14;;;;;;;;;;;;;;;12.35;51.94;95997.64;110154;1241;71954;-68
2023/03/09 06:45:01;;;;;;;;;;;;;;;12.44;51.98;96007.17;110163;1241;69850;-66
2023/03/09 06:47:31;;;;;;;;;;;;;;;12.71;51.23;96002.04;110137;1243;69879;-67
2023/03/09 06:50:04;;;;;;;;;;;;;;;12.73;50.47;96004.00;110144;1241;59734;-66
2023/03/09 06:52:36;;;;;;;;;;;;;;;12.23;51.76;96012.83;110158;1245;59734;-66
2023/03/09 06:55:05;;;;;;;;;;;;;;;12.02;52.28;96005.35;110150;1241;72316;-67
2023/03/09 06:57:46;;;;;;;;;;;;;;;11.88;52.72;96008.41;110113;1244;69243;-67
2023/03/09 07:00:16;;;;;;;;;;;;;;;11.56;53.77;96008.48;110174;1244;69415;-67
2023/03/09 07:02:46;;;;;;;;;;;;;;;11.32;54.49;96008.77;110131;1245;59760;-67
2023/03/09 07:05:16;;;;;;;;;;;;;;;11.28;54.75;96009.27;110267;1241;59681;-65
2023/03/09 07:07:45;;;;;;;;;;;;;;;11.16;54.85;96005.64;110204;1244;71469;-67
2023/03/09 07:10:14;;;;;;;;;;;;;;;11.18;55.33;96003.29;110227;1245;69166;-66
2023/03/09 07:12:46;;;;;;;;;;;;;;;11.16;55.83;96005.41;110177;1245;69878;-66
2023/03/09 07:15:15;;;;;;;;;;;;;;;11.09;56.10;96009.73;110167;1241;59735;-66
2023/03/09 07:17:44;;;;;;;;;;;;;;;10.96;56.55;96007.50;110150;1241;59744;-67
2023/03/09 07:20:13;;;;;;;;;;;;;;;11.00;56.73;96009.05;110189;1241;70735;-66
2023/03/09 07:22:41;;;;;;;;;;;;;;;10.86;57.39;96007.67;110175;1245;69800;-65
2023/03/09 07:25:11;;;;;;;;;;;;;;;10.79;57.69;96010.09;110197;1243;68788;-66
2023/03/09 07:27:39;;;;;;;;;;;;;;;10.78;58.20;96004.55;110169;1244;59686;-65
2023/03/09 07:30:09;;;;;;;;;;;;;;;10.84;58.42;96001.88;110161;1245;59737;-66
2023/03/09 07:32:37;;;;;;;;;;;;;;;10.96;58.48;96002.81;110131;1241;71385;-67
2023/03/09 07:35:07;;;;;;;;;;;;;;;11.02;58.85;95998.23;110161;1245;69667;-67
2023/03/09 07:37:35;;;;;;;;;;;;;;;11.21;58.74;95996.91;110134;1244;69270;-67
2023/03/09 07:40:05;;;;;;;;;;;;;;;11.30;58.49;95997.45;110167;1241;59760;-64
2023/03/09 07:42:34;;;;;;;;;;;;;;;11.27;58.46;95999.00;110133;1245;59647;-65
2023/03/09 07:45:24;;;;;;;;;;;;;;;11.29;58.42;96003.65;110146;1244;72759;-65
2023/03/09 07:47:53;;;;;;;;;;;;;;;11.27;57.93;96002.14;110176;1242;70060;-65
2023/03/09 07:50:23;;;;;;;;;;;;;;;11.17;57.70;95999.89;110130;1252;69372;-67
2023/03/09 07:52:53;;;;;;;;;;;;;;;11.17;57.67;96003.73;110163;1245;59726;-66
2023/03/09 07:55:23;;;;;;;;;;;;;;;11.15;57.53;96000.13;110175;1243;59694;-65
2023/03/09 07:57:52;;;;;;;;;;;;;;;11.13;57.92;95995.54;110172;1244;71423;-66
2023/03/09 08:00:23;;;;;;;;;;;;;;;11.22;57.94;96000.09;110171;1245;69217;-67
2023/03/09 08:02:53;;;;;;;;;;;;;;;11.34;57.93;96001.02;110142;1244;70086;-67
2023/03/09 08:05:22;;;;;;;;;;;;;;;11.38;57.95;96000.82;110157;1241;59674;-67
2023/03/09 08:07:51;;;;;;;;;;;;;;;11.53;57.91;96003.83;110204;1241;59670;-67
2023/03/09 08:10:19;;;;;;;;;;;;;;;11.70;57.62;96000.41;110176;1245;72034;-67
2023/03/09 08:12:49;;;;;;;;;;;;;;;11.71;57.38;96002.29;110180;1241;68258;-65
2023/03/09 08:15:22;;;;;;;;;;;;;;;11.88;57.57;95994.36;110170;1241;69133;-67
2023/03/09 08:17:50;;;;;;;;;;;;;;;12.00;56.92;95991.33;110168;1245;59736;-67
2023/03/09 08:20:19;;;;;;;;;;;;;;;12.32;56.76;95984.02;110143;1245;59682;-65
2023/03/09 08:22:48;;;;;;;;;;;;;;;12.83;55.89;95987.48;110149;1245;70489;-64
2023/03/09 08:25:17;;;;;;;;;;;;;;;13.63;54.13;95985.44;110160;1243;68292;-67
2023/03/09 08:27:46;;;;;;;;;;;;;;;13.90;52.79;95984.89;110143;1241;68608;-67
2023/03/09 08:30:17;;;;;;;;;;;;;;;13.49;53.39;95988.80;110187;1245;59754;-66
2023/03/09 08:32:47;;;;;;;;;;;;;;;13.42;53.81;95987.80;110168;1245;59678;-66
2023/03/09 08:35:20;;;;;;;;;;;;;;;13.57;53.68;95993.59;110200;1241;71197;-65
2023/03/09 08:37:49;;;;;;;;;;;;;;;13.46;54.12;95999.16;110157;1245;69148;-66
2023/03/09 08:40:18;;;;;;;;;;;;;;;13.65;53.00;96003.20;110136;1243;69678;-67
2023/03/09 08:42:47;;;;;;;;;;;;;;;13.47;53.32;96003.55;110162;1241;59667;-65
2023/03/09 08:45:16;;;;;;;;;;;;;;;13.37;54.32;95995.68;110182;1243;59690;-66
2023/03/09 08:47:45;;;;;;;;;;;;;;;13.53;54.33;95998.73;110186;1241;71343;-68
2023/03/09 08:50:15;;;;;;;;;;;;;;;13.42;54.62;96000.52;110162;1245;69795;-67
2023/03/09 08:52:44;;;;;;;;;;;;;;;13.23;55.85;95999.45;110141;1245;69284;-66
2023/03/09 08:55:13;;;;;;;;;;;;;;;13.16;56.03;96007.17;110160;1244;59694;-66
2023/03/09 08:57:42;;;;;;;;;;;;;;;13.82;54.66;96000.86;110183;1245;59665;-67
2023/03/09 09:00:11;;;;;;;;;;;;;;;13.69;55.53;95993.35;110170;1241;70939;-67
2023/03/09 09:02:41;;;;;;;;;;;;;;;13.67;55.27;95994.04;110171;1245;69049;-66
2023/03/09 09:05:10;;;;;;;;;;;;;;;13.62;55.79;95990.56;110150;1241;69134;-66
2023/03/09 09:07:40;;;;;;;;;;;;;;;13.72;55.91;95989.38;110161;1242;59823;-66
2023/03/09 09:10:13;;;;;;;;;;;;;;;13.63;56.07;95989.23;110172;1245;59682;-65
2023/03/09 09:13:01;;;;;;;;;;;;;;;13.55;56.80;95994.33;110195;1243;70766;-67
2023/03/09 09:15:30;;;;;;;;;;;;;;;13.62;56.42;95992.50;110166;1245;69813;-68
2023/03/09 09:17:59;;;;;;;;;;;;;;;13.34;57.52;95988.52;110132;1245;68306;-66
2023/03/09 09:20:28;;;;;;;;;;;;;;;13.32;57.81;95985.25;110136;1244;59760;-66
2023/03/09 09:22:57;;;;;;;;;;;;;;;13.35;57.52;95989.27;110207;1245;59661;-66
2023/03/09 09:25:25;;;;;;;;;;;;;;;13.12;58.02;95988.98;110206;1243;71453;-66
2023/03/09 09:27:54;;;;;;;;;;;;;;;13.09;58.47;95983.38;110178;1241;69240;-66
2023/03/09 09:30:23;;;;;;;;;;;;;;;13.11;58.14;95980.38;110145;1245;69194;-67
2023/03/09 09:32:52;;;;;;;;;;;;;;;13.03;58.02;95977.75;110143;1244;59740;-67
2023/03/09 09:35:21;;;;;;;;;;;;;;;13.16;57.99;95978.91;110178;1241;59743;-67
2023/03/09 09:37:51;;;;;;;;;;;;;;;13.18;57.36;95979.05;110132;1245;71272;-67
2023/03/09 09:40:21;;;;;;;;;;;;;;;13.20;57.64;95978.20;110147;1241;68435;-66
2023/03/09 09:42:50;;;;;;;;;;;;;;;13.22;57.66;95979.98;110111;1251;69673;-66
2023/03/09 09:45:22;;;;;;;;;;;;;;;13.28;57.18;95976.66;110149;1245;59726;-67
2023/03/09 09:47:51;;;;;;;;;;;;;;;13.17;57.63;95976.60;110137;1246;59712;-66
2023/03/09 09:50:23;;;;;;;;;;;;;;;13.18;58.23;95980.35;110201;1245;72013;-67
2023/03/09 09:53:15;;;;;;;;;;;;;;;13.17;57.48;95972.05;110158;1244;68852;-67
2023/03/09 09:55:44;;;;;;;;;;;;;;;13.13;57.71;95965.52;110206;1246;68300;-67
2023/03/09 09:58:22;;;;;;;;;;;;;;;13.13;57.78;95972.36;110177;1246;59766;-66
2023/03/09 10:00:52;;;;;;;;;;;;;;;13.08;57.71;95971.80;110202;1246;60158;-65
2023/03/09 10:03:27;;;;;;;;;;;;;;;13.27;57.42;95975.91;110159;1245;71959;-67
2023/03/09 10:05:59;;;;;;;;;;;;;;;13.41;57.32;95971.50;110203;1246;69261;-67
2023/03/09 10:08:48;;;;;;;;;;;;;;;13.46;57.28;95974.58;110169;1244;69270;-66
2023/03/09 10:11:26;;;;;;;;;;;;;;;13.68;57.01;95967.45;110188;1243;59747;-67
2023/03/09 10:14:09;;;;;;;;;;;;;;;13.82;56.10;95957.10;110168;1243;59631;-66
2023/03/09 10:16:45;;;;;;;;;;;;;;;13.68;56.24;95958.61;110222;1244;71069;-66
2023/03/09 10:19:18;;;;;;;;;;;;;;;13.57;56.52;95963.10;110160;1243;69410;-66
2023/03/09 10:21:58;;;;;;;;;;;;;;;13.38;56.90;95956.70;110178;1241;69092;-67
2023/03/09 10:24:29;;;;;;;;;;;;;;;13.16;57.62;95955.38;110161;1245;60082;-66
2023/03/09 10:27:15;;;;;;;;;;;;;;;13.38;57.48;95957.58;110147;1243;59739;-67
2023/03/09 10:29:44;;;;;;;;;;;;;;;14.33;55.67;95950.41;110130;1241;71248;-65
2023/03/09 10:32:20;;;;;;;;;;;;;;;15.19;53.31;95953.20;110131;1245;69308;-65
2023/03/09 10:35:04;;;;;;;;;;;;;;;15.66;51.53;95951.65;110167;1245;69008;-65
2023/03/09 10:37:34;;;;;;;;;;;;;;;15.84;50.03;95953.08;110170;1243;59696;-65
2023/03/09 10:40:07;;;;;;;;;;;;;;;15.74;50.12;95948.55;110194;1243;59734;-66
2023/03/09 10:42:37;;;;;;;;;;;;;;;15.43;51.42;95945.89;110139;1243;71382;-67
2023/03/09 10:45:26;;;;;;;;;;;;;;;15.05;51.84;95936.56;110117;1243;69649;-66
2023/03/09 10:47:55;;;;;;;;;;;;;;;15.17;51.40;95926.77;110114;1246;69801;-66
2023/03/09 10:50:28;;;;;;;;;;;;;;;15.01;51.77;95925.56;110124;1245;59763;-66
2023/03/09 10:52:57;;;;;;;;;;;;;;;15.60;50.73;95929.33;110168;1245;59733;-66
2023/03/09 10:55:27;;;;;;;;;;;;;;;16.21;49.54;95923.34;110130;1243;71056;-67
2023/03/09 10:57:57;;;;;;;;;;;;;;;16.81;48.31;95923.16;110140;1245;69916;-65
2023/03/09 11:00:26;;;;;;;;;;;;;;;16.79;47.56;95916.40;110169;1245;69861;-66
2023/03/09 11:02:56;;;;;;;;;;;;;;;16.45;47.69;95904.75;110124;1245;59766;-65
2023/03/09 11:05:31;;;;;;;;;;;;;;;15.89;48.59;95906.45;110141;1243;59681;-65
2023/03/09 11:08:02;;;;;;;;;;;;;;;15.41;49.21;95911.70;110125;1246;71783;-65
2023/03/09 11:10:32;;;;;;;;;;;;;;;14.70;51.11;95907.34;110136;1244;68749;-65
2023/03/09 11:13:02;;;;;;;;;;;;;;;14.70;51.56;95905.80;110164;1241;69171;-66
2023/03/09 11:15:37;;;;;;;;;;;;;;;14.59;52.35;95892.78;110089;1241;59751;-67
2023/03/09 11:18:25;;;;;;;;;;;;;;;14.66;52.25;95900.14;110115;1246;59700;-66
2023/03/09 11:20:54;;;;;;;;;;;;;;;14.32;52.65;95904.22;110145;1241;71459;-64
2023/03/09 11:23:41;;;;;;;;;;;;;;;14.26;52.98;95901.98;110155;1244;69871;-66
2023/03/09 11:26:21;;;;;;;;;;;;;;;14.07;53.01;95902.16;110117;1247;69082;-66
2023/03/09 11:28:54;;;;;;;;;;;;;;;13.97;53.28;95901.80;110137;1241;59717;-65
2023/03/09 11:31:35;;;;;;;;;;;;;;;13.92;53.55;95891.08;110201;1244;59751;-65
2023/03/09 11:34:12;;;;;;;;;;;;;;;13.93;53.45;95901.09;110123;1243;71954;-65
2023/03/09 11:36:48;;;;;;;;;;;;;;;13.88;53.55;95893.20;110178;1243;69226;-66
2023/03/09 11:39:40;;;;;;;;;;;;;;;13.76;53.61;95895.05;110162;1244;69835;-65
2023/03/09 11:42:14;;;;;;;;;;;;;;;13.66;54.29;95900.63;110115;1241;59748;-67
2023/03/09 11:44:46;;;;;;;;;;;;;;;13.63;54.54;95899.58;110189;1243;59633;-66
2023/03/09 11:47:27;;;;;;;;;;;;;;;13.63;54.58;95893.15;110174;1245;71979;-66
2023/03/09 11:49:57;;;;;;;;;;;;;;;13.60;54.92;95891.48;110177;1245;68927;-65
2023/03/09 11:52:34;;;;;;;;;;;;;;;13.63;54.96;95887.66;110142;1253;69496;-64
2023/03/09 11:55:08;;;;;;;;;;;;;;;13.67;54.81;95885.98;110136;1246;59750;-65
2023/03/09 11:57:37;;;;;;;;;;;;;;;13.60;55.06;95883.84;110145;1244;59654;-66
2023/03/09 12:00:10;;;;;;;;;;;;;;;13.55;55.46;95883.72;110152;1249;72094;-66
2023/03/09 12:02:57;;;;;;;;;;;;;;;13.50;55.70;95879.85;110193;1245;68314;-67
2023/03/09 12:05:30;;;;;;;;;;;;;;;13.39;55.94;95886.80;110118;1246;69270;-65
2023/03/09 12:08:22;;;;;;;;;;;;;;;13.42;56.38;95887.42;110147;1241;59700;-66
2023/03/09 12:11:13;;;;;;;;;;;;;;;13.36;56.52;95876.45;110164;1245;59684;-68
2023/03/09 12:14:01;;;;;;;;;;;;;;;13.27;57.39;95883.55;110081;1241;70921;-65
2023/03/09 12:16:36;;;;;;;;;;;;;;;13.12;58.16;95881.30;110136;1244;69798;-66
2023/03/09 12:19:14;;;;;;;;;;;;;;;13.08;58.07;95896.04;110123;1244;69597;-66
2023/03/09 12:21:45;;;;;;;;;;;;;;;12.96;58.55;95892.67;110106;1246;59689;-64
2023/03/09 12:24:27;;;;;;;;;;;;;;;12.90;59.00;95888.02;110174;1243;59635;-67
2023/03/09 12:27:16;;;;;;;;;;;;;;;12.90;59.23;95886.15;110176;1242;71887;-66
2023/03/09 12:29:50;;;;;;;;;;;;;;;12.89;59.32;95884.44;110215;1243;69184;-67
2023/03/09 12:32:21;;;;;;;;;;;;;;;12.91;59.01;95892.66;110149;1245;69240;-67
2023/03/09 12:34:54;;;;;;;;;;;;;;;12.82;59.67;95888.54;110107;1245;59747;-67
2023/03/09 12:37:35;;;;;;;;;;;;;;;12.79;59.81;95887.60;110176;1241;59704;-66
2023/03/09 12:40:19;;;;;;;;;;;;;;;12.76;59.87;95889.14;110126;1245;71242;-68
2023/03/09 12:42:50;;;;;;;;;;;;;;;12.73;60.35;95889.02;110185;1252;69811;-66
2023/03/09 12:45:24;;;;;;;;;;;;;;;12.72;60.16;95883.92;110175;1243;68626;-67
2023/03/09 12:48:07;;;;;;;;;;;;;;;12.84;60.17;95877.55;110126;1243;59678;-65
2023/03/09 12:50:36;;;;;;;;;;;;;;;12.81;60.43;95876.77;110166;1244;59710;-67
2023/03/09 12:53:05;;;;;;;;;;;;;;;12.84;60.71;95875.88;110214;1245;71683;-67
2023/03/09 12:55:33;;;;;;;;;;;;;;;12.78;60.39;95876.20;110202;1244;68449;-67
2023/03/09 12:58:24;;;;;;;;;;;;;;;12.84;60.49;95877.88;110187;1246;69189;-66
2023/03/09 13:01:27;;;;;;;;;;;;;;;12.78;60.44;95871.31;110197;1243;59990;-67
2023/03/09 13:04:13;;;;;;;;;;;;;;;12.86;60.13;95874.96;110181;1241;59667;-67
2023/03/09 13:06:53;;;;;;;;;;;;;;;12.77;60.57;95876.30;110128;1246;71231;-66